Time;durP1;ratioP1;P1;durP2;ratioP2;P2;SDS_P1;SDS_P2;PMS_P1;PMS_P2;Temp;Humidity;BMP_temperature;BMP_pressure;BME280_temperature;BME280_humidity;BME280_pressure;Samples;Min_cycle;Max_cycle;Signal;HPM_P1;HPM_P2
2022/12/01 00:00:05;;;;;;;7.30;6.70;;;3.50;99.90;;;;;;5028487;28;20216;-72
2022/12/01 00:02:33;;;;;;;6.65;6.07;;;3.50;99.90;;;;;;5024530;28;20803;-73
2022/12/01 00:05:01;;;;;;;8.15;7.45;;;3.50;99.90;;;;;;5027938;28;20203;-73
2022/12/01 00:07:28;;;;;;;7.40;6.80;;;3.40;99.90;;;;;;5027386;28;20222;-73
2022/12/01 00:12:42;;;;;;;7.60;7.00;;;3.40;99.90;;;;;;5021068;28;20221;-73
2022/12/01 00:15:10;;;;;;;7.05;6.45;;;3.50;99.90;;;;;;5024618;28;20231;-72
2022/12/01 00:17:42;;;;;;;6.50;6.00;;;3.50;99.90;;;;;;5024457;28;20298;-72
2022/12/01 00:20:11;;;;;;;7.32;6.72;;;3.50;99.90;;;;;;5025495;28;20564;-72
2022/12/01 00:22:43;;;;;;;6.70;6.20;;;3.50;99.90;;;;;;5022975;28;20227;-73
2022/12/01 00:25:11;;;;;;;7.97;7.28;;;3.50;99.90;;;;;;5021115;28;20208;-73
2022/12/01 00:27:39;;;;;;;7.13;6.57;;;3.40;99.90;;;;;;5025631;28;20224;-72
2022/12/01 00:30:08;;;;;;;6.90;6.40;;;3.40;99.90;;;;;;5022835;28;20192;-72
2022/12/01 00:32:35;;;;;;;6.35;5.85;;;3.30;99.90;;;;;;5017790;28;20226;-73
2022/12/01 00:35:06;;;;;;;7.03;6.53;;;3.30;99.90;;;;;;5025564;28;20195;-72
2022/12/01 00:37:34;;;;;;;7.50;6.90;;;3.40;99.90;;;;;;5024355;28;20227;-73
2022/12/01 00:40:02;;;;;;;6.68;6.07;;;3.40;99.90;;;;;;5054662;28;20224;-73
2022/12/01 00:42:30;;;;;;;7.88;7.15;;;3.40;99.90;;;;;;5025027;28;20227;-73
2022/12/01 00:44:59;;;;;;;7.75;7.05;;;3.40;99.90;;;;;;5023344;28;20200;-72
2022/12/01 00:47:26;;;;;;;7.55;6.95;;;3.40;99.90;;;;;;5022267;28;20238;-73
2022/12/01 00:49:53;;;;;;;7.47;6.85;;;3.40;99.90;;;;;;5028629;28;20206;-72
2022/12/01 00:52:22;;;;;;;6.50;6.00;;;3.50;99.90;;;;;;5028481;28;20593;-72
2022/12/01 00:54:50;;;;;;;7.32;6.72;;;3.50;99.90;;;;;;5027508;28;20196;-73
2022/12/01 00:57:17;;;;;;;6.93;6.32;;;3.60;99.90;;;;;;5035466;28;20226;-73
2022/12/01 00:59:45;;;;;;;7.05;6.45;;;3.60;99.90;;;;;;5022936;28;20204;-72
2022/12/01 01:02:12;;;;;;;7.55;6.85;;;3.60;99.90;;;;;;5024281;28;20636;-71
2022/12/01 01:04:39;;;;;;;6.63;6.03;;;3.60;99.90;;;;;;5022345;28;20192;-73
2022/12/01 01:07:06;;;;;;;6.85;6.25;;;3.60;99.90;;;;;;5024090;28;20342;-72
2022/12/01 01:09:36;;;;;;;6.70;6.13;;;3.60;99.90;;;;;;5022951;28;20196;-72
2022/12/01 01:12:03;;;;;;;6.70;6.20;;;3.60;99.90;;;;;;5024250;28;20269;-72
2022/12/01 01:14:30;;;;;;;6.68;6.07;;;3.60;99.90;;;;;;5023997;28;20210;-71
2022/12/01 01:16:58;;;;;;;6.85;6.30;;;3.60;99.90;;;;;;5021058;28;20232;-73
2022/12/01 01:19:25;;;;;;;6.20;5.70;;;3.60;99.90;;;;;;5028278;28;20322;-72
2022/12/01 01:21:53;;;;;;;6.55;6.05;;;3.60;99.90;;;;;;5020173;28;20752;-73
2022/12/01 01:24:20;;;;;;;6.35;5.85;;;3.50;99.90;;;;;;5023979;28;20582;-72
2022/12/01 01:26:50;;;;;;;6.60;6.10;;;3.50;99.90;;;;;;5022209;28;20224;-72
2022/12/01 01:29:17;;;;;;;6.55;6.05;;;3.50;99.90;;;;;;5024261;28;20203;-72
2022/12/01 01:31:44;;;;;;;6.50;6.00;;;3.50;99.90;;;;;;5025026;28;20322;-72
2022/12/01 01:34:11;;;;;;;6.22;5.70;;;3.50;99.90;;;;;;5022478;28;20582;-73
2022/12/01 01:36:39;;;;;;;6.78;6.18;;;3.40;99.90;;;;;;5024541;28;20224;-73
2022/12/01 01:39:06;;;;;;;5.78;5.38;;;3.40;99.90;;;;;;5024313;28;20634;-72
2022/12/01 01:41:34;;;;;;;6.53;6.03;;;3.40;99.90;;;;;;5020721;28;20242;-73
2022/12/01 01:44:03;;;;;;;6.90;6.30;;;3.40;99.90;;;;;;5026875;28;20199;-72
2022/12/01 01:46:32;;;;;;;7.25;6.75;;;3.40;99.90;;;;;;5020393;28;20224;-72
2022/12/01 01:49:02;;;;;;;7.00;6.50;;;3.40;99.90;;;;;;5054752;28;20274;-72
2022/12/01 01:51:33;;;;;;;6.40;5.90;;;3.30;99.90;;;;;;5023241;28;20223;-73
2022/12/01 01:54:04;;;;;;;6.60;6.05;;;3.30;99.90;;;;;;5027921;28;20237;-72
2022/12/01 01:56:32;;;;;;;6.28;5.78;;;3.30;99.90;;;;;;5022421;28;20701;-73
2022/12/01 01:59:00;;;;;;;7.38;6.78;;;3.30;99.90;;;;;;5055741;28;20807;-72
2022/12/01 02:01:28;;;;;;;8.20;7.50;;;3.20;99.90;;;;;;5022898;28;20238;-73
2022/12/01 02:03:56;;;;;;;6.93;6.32;;;3.20;99.90;;;;;;5025016;28;20193;-72
2022/12/01 02:06:24;;;;;;;7.55;6.95;;;3.10;99.90;;;;;;5027741;28;20595;-71
2022/12/01 02:08:52;;;;;;;6.90;6.30;;;3.00;99.90;;;;;;5030388;28;20258;-72
2022/12/01 02:11:48;;;;;;;6.55;6.05;;;3.00;99.90;;;;;;5022678;28;20234;-72
2022/12/01 02:14:31;;;;;;;7.53;6.93;;;3.00;99.90;;;;;;5026856;28;20235;-73
2022/12/01 02:17:06;;;;;;;7.30;6.70;;;3.00;99.90;;;;;;5028578;28;20574;-73
2022/12/01 02:19:56;;;;;;;7.00;6.40;;;2.90;99.90;;;;;;5029067;28;20258;-71
2022/12/01 02:22:36;;;;;;;7.38;6.78;;;2.90;99.90;;;;;;5028792;28;20595;-72
2022/12/01 02:25:21;;;;;;;7.43;6.82;;;2.80;99.90;;;;;;5026070;28;20196;-73
2022/12/01 02:28:18;;;;;;;7.47;6.88;;;2.80;99.90;;;;;;5032405;28;20215;-73
2022/12/01 02:30:50;;;;;;;7.28;6.68;;;2.80;99.90;;;;;;5018769;28;20218;-72
2022/12/01 02:33:23;;;;;;;7.47;6.88;;;2.70;99.90;;;;;;5022354;28;20196;-73
2022/12/01 02:35:58;;;;;;;7.55;6.90;;;2.70;99.90;;;;;;5028472;28;20775;-72
2022/12/01 02:38:30;;;;;;;7.38;6.78;;;2.80;99.90;;;;;;5028726;28;20575;-73
2022/12/01 02:41:05;;;;;;;6.55;5.97;;;2.70;99.90;;;;;;5028579;28;20227;-72
2022/12/01 02:43:39;;;;;;;6.95;6.35;;;2.70;99.90;;;;;;5027273;28;20198;-71
2022/12/01 02:46:12;;;;;;;7.05;6.50;;;2.70;99.90;;;;;;5026106;28;20705;-73
2022/12/01 02:48:43;;;;;;;7.00;6.20;;;2.70;99.90;;;;;;5028341;28;20243;-72
2022/12/01 02:51:15;;;;;;;7.03;6.53;;;2.70;99.90;;;;;;5025333;28;20247;-72
2022/12/01 02:53:43;;;;;;;7.40;6.80;;;2.70;99.90;;;;;;5028536;28;20200;-72
2022/12/01 02:56:14;;;;;;;7.38;6.85;;;2.70;99.90;;;;;;5028489;28;20216;-72
2022/12/01 02:58:42;;;;;;;7.10;6.47;;;2.70;99.90;;;;;;5025815;28;20290;-72
2022/12/01 03:01:37;;;;;;;7.18;6.57;;;2.70;99.90;;;;;;5026836;28;20235;-73
2022/12/01 03:04:28;;;;;;;6.82;6.22;;;2.70;99.90;;;;;;5030030;28;20713;-73
2022/12/01 03:07:06;;;;;;;6.65;6.15;;;2.70;99.90;;;;;;5029231;28;20639;-72
2022/12/01 03:09:47;;;;;;;7.13;6.63;;;2.70;99.90;;;;;;5027395;28;20195;-72
2022/12/01 03:12:22;;;;;;;6.70;6.22;;;2.70;99.90;;;;;;5028835;28;20228;-73
2022/12/01 03:15:02;;;;;;;6.68;6.18;;;2.70;99.90;;;;;;5024591;28;20200;-72
2022/12/01 03:17:38;;;;;;;6.55;6.05;;;2.70;99.90;;;;;;5032116;28;20224;-71
2022/12/01 03:20:11;;;;;;;6.07;5.57;;;2.70;99.90;;;;;;5038763;28;20649;-73
2022/12/01 03:22:44;;;;;;;7.22;6.63;;;2.70;99.90;;;;;;5029657;28;20259;-73
2022/12/01 03:25:13;;;;;;;5.93;5.53;;;2.70;99.90;;;;;;5029372;28;20603;-73
2022/12/01 03:27:44;;;;;;;6.45;5.93;;;2.70;99.90;;;;;;5029540;28;20211;-72
2022/12/01 03:30:14;;;;;;;6.95;6.40;;;2.70;99.90;;;;;;5027974;28;20206;-72
2022/12/01 03:32:47;;;;;;;6.45;5.95;;;2.70;99.90;;;;;;5026804;28;20216;-72
2022/12/01 03:35:19;;;;;;;6.10;5.65;;;2.70;99.90;;;;;;5027710;28;20202;-72
2022/12/01 03:37:52;;;;;;;6.28;5.70;;;2.70;99.90;;;;;;5027746;28;20597;-73
2022/12/01 03:40:26;;;;;;;6.43;5.93;;;2.70;99.90;;;;;;5026573;28;20258;-73
2022/12/01 03:42:55;;;;;;;7.70;7.10;;;2.70;99.90;;;;;;5028096;28;20275;-72
2022/12/01 03:45:32;;;;;;;7.47;6.88;;;2.70;99.90;;;;;;5023348;28;20200;-72
2022/12/01 03:48:02;;;;;;;5.97;5.57;;;2.60;99.90;;;;;;5024636;28;20216;-72
2022/12/01 03:50:36;;;;;;;6.00;5.50;;;2.60;99.90;;;;;;5027679;28;20223;-72
2022/12/01 03:53:11;;;;;;;6.15;5.65;;;2.60;99.90;;;;;;5024232;28;20238;-72
2022/12/01 03:55:42;;;;;;;6.60;6.10;;;2.60;99.90;;;;;;5024818;28;20472;-72
2022/12/01 03:58:12;;;;;;;7.10;6.60;;;2.60;99.90;;;;;;5026941;28;20196;-73
2022/12/01 04:00:42;;;;;;;6.43;5.85;;;2.60;99.90;;;;;;5022675;28;20220;-73
2022/12/01 04:03:18;;;;;;;6.82;6.32;;;2.60;99.90;;;;;;5023776;28;20604;-73
2022/12/01 04:05:45;;;;;;;6.82;6.22;;;2.60;99.90;;;;;;5024399;28;20592;-72
2022/12/01 04:08:13;;;;;;;6.60;6.10;;;2.60;99.90;;;;;;5024926;28;20192;-73
2022/12/01 04:10:40;;;;;;;6.45;5.95;;;2.60;99.90;;;;;;5022235;28;20716;-70
2022/12/01 04:13:11;;;;;;;7.03;6.45;;;2.60;99.90;;;;;;5022426;28;20210;-72
2022/12/01 04:15:38;;;;;;;6.82;6.32;;;2.60;99.90;;;;;;5025189;28;20199;-73
2022/12/01 04:18:06;;;;;;;6.68;6.07;;;2.50;99.90;;;;;;5026146;28;20249;-73
2022/12/01 04:20:34;;;;;;;5.97;5.53;;;2.50;99.90;;;;;;5024707;28;20713;-72
2022/12/01 04:23:02;;;;;;;6.05;5.55;;;2.50;99.90;;;;;;5024026;28;20231;-73
2022/12/01 04:25:29;;;;;;;6.30;5.75;;;2.50;99.90;;;;;;5027657;28;20196;-72
2022/12/01 04:27:56;;;;;;;6.55;5.95;;;2.50;99.90;;;;;;5027953;28;20224;-72
2022/12/01 04:30:24;;;;;;;7.00;6.50;;;2.50;99.90;;;;;;5032208;28;20216;-72
2022/12/01 04:32:52;;;;;;;6.95;6.40;;;2.50;99.90;;;;;;5029808;28;20207;-72
2022/12/01 04:35:19;;;;;;;6.72;6.13;;;2.50;99.90;;;;;;5024923;28;20199;-73
2022/12/01 04:37:48;;;;;;;6.88;6.38;;;2.60;99.90;;;;;;5024752;28;20227;-73
2022/12/01 04:40:17;;;;;;;6.70;6.20;;;2.50;99.90;;;;;;5028152;28;20622;-73
2022/12/01 04:42:45;;;;;;;6.40;5.90;;;2.50;99.90;;;;;;5024649;28;20243;-72
2022/12/01 04:45:12;;;;;;;6.75;6.15;;;2.50;99.90;;;;;;5026612;28;20281;-73
2022/12/01 04:47:40;;;;;;;6.88;6.28;;;2.50;99.90;;;;;;5020653;28;20220;-73
2022/12/01 04:50:08;;;;;;;6.65;6.05;;;2.50;99.90;;;;;;5019508;28;20208;-73
2022/12/01 04:52:38;;;;;;;6.47;5.97;;;2.50;99.90;;;;;;5025622;28;20215;-73
2022/12/01 04:55:07;;;;;;;6.07;5.57;;;2.40;99.90;;;;;;5026403;28;20200;-72
2022/12/01 04:57:35;;;;;;;6.22;5.82;;;2.40;99.90;;;;;;5023685;28;20219;-73
2022/12/01 05:00:11;;;;;;;5.95;5.55;;;2.40;99.90;;;;;;5025018;28;20661;-73
2022/12/01 05:02:42;;;;;;;7.32;6.72;;;2.40;99.90;;;;;;5018730;28;20236;-73
2022/12/01 05:05:10;;;;;;;5.88;5.47;;;2.40;99.90;;;;;;5028251;28;20258;-73
2022/12/01 05:07:37;;;;;;;7.43;6.82;;;2.30;99.90;;;;;;5021582;28;20230;-73
2022/12/01 05:10:08;;;;;;;6.40;5.90;;;2.30;99.90;;;;;;5020541;28;20712;-73
2022/12/01 05:12:36;;;;;;;6.32;5.82;;;2.30;99.90;;;;;;5025399;28;20223;-73
2022/12/01 05:15:03;;;;;;;6.70;6.20;;;2.30;99.90;;;;;;5025054;28;20203;-72
2022/12/01 05:17:32;;;;;;;6.18;5.70;;;2.30;99.90;;;;;;5025667;28;20230;-72
2022/12/01 05:22:44;;;;;;;6.40;5.90;;;2.20;99.90;;;;;;5024562;28;20349;-72
2022/12/01 05:25:13;;;;;;;6.63;6.13;;;2.20;99.90;;;;;;5027215;28;20195;-72
2022/12/01 05:27:40;;;;;;;7.22;6.63;;;2.30;99.90;;;;;;5022758;28;20233;-73
2022/12/01 05:30:08;;;;;;;6.68;6.18;;;2.30;99.90;;;;;;5025852;28;20597;-73
2022/12/01 05:32:36;;;;;;;7.38;6.78;;;2.30;99.90;;;;;;5018555;28;20225;-73
2022/12/01 05:35:04;;;;;;;6.40;5.90;;;2.20;99.90;;;;;;5023972;28;20207;-73
2022/12/01 05:37:33;;;;;;;6.63;6.13;;;2.30;99.90;;;;;;5022516;28;20211;-73
2022/12/01 05:40:00;;;;;;;7.03;6.45;;;2.30;99.90;;;;;;5024550;28;20204;-71
2022/12/01 05:42:29;;;;;;;5.97;5.47;;;2.30;99.90;;;;;;5041684;28;20222;-72
2022/12/01 05:44:56;;;;;;;6.68;6.18;;;2.30;99.90;;;;;;5026739;28;20196;-72
2022/12/01 05:47:23;;;;;;;6.80;6.20;;;2.40;99.90;;;;;;5029059;28;20238;-73
2022/12/01 05:49:51;;;;;;;6.53;6.03;;;2.40;99.90;;;;;;5024353;28;20204;-71
2022/12/01 05:52:18;;;;;;;6.10;5.60;;;2.40;99.90;;;;;;5029560;28;20219;-73
2022/12/01 05:54:46;;;;;;;6.35;5.85;;;2.30;99.90;;;;;;5030867;28;20627;-72
2022/12/01 05:57:15;;;;;;;7.00;6.50;;;2.30;99.90;;;;;;5028407;28;20724;-72
2022/12/01 05:59:44;;;;;;;6.95;6.45;;;2.40;99.90;;;;;;5028213;28;20200;-72
2022/12/01 06:02:11;;;;;;;6.40;5.90;;;2.30;99.90;;;;;;5027547;28;20219;-73
2022/12/01 06:04:39;;;;;;;6.80;6.28;;;2.30;99.90;;;;;;5030520;28;20200;-72
2022/12/01 06:07:06;;;;;;;7.07;6.47;;;2.30;99.90;;;;;;5026309;28;20723;-72
2022/12/01 06:09:33;;;;;;;7.30;6.70;;;2.30;99.90;;;;;;5031128;28;20258;-72
2022/12/01 06:12:01;;;;;;;7.28;6.32;;;2.20;99.90;;;;;;5028303;28;20219;-72
2022/12/01 06:14:28;;;;;;;7.82;7.13;;;2.30;99.90;;;;;;5030298;28;20203;-71
2022/12/01 06:16:57;;;;;;;6.85;6.35;;;2.30;99.90;;;;;;5033014;28;20596;-72
2022/12/01 06:19:25;;;;;;;7.35;6.75;;;2.30;99.90;;;;;;5027252;28;20195;-73
2022/12/01 06:21:52;;;;;;;6.53;6.03;;;2.30;99.90;;;;;;5025513;28;20228;-73
2022/12/01 06:24:19;;;;;;;6.68;6.18;;;2.30;99.90;;;;;;5027345;28;20204;-73
2022/12/01 06:26:46;;;;;;;6.55;6.05;;;2.20;99.90;;;;;;5023098;28;20224;-73
2022/12/01 06:29:14;;;;;;;6.70;6.20;;;2.20;99.90;;;;;;5027163;28;20211;-73
2022/12/01 06:31:41;;;;;;;6.18;5.75;;;2.20;99.90;;;;;;5027117;28;20230;-72
2022/12/01 06:34:11;;;;;;;6.05;5.55;;;2.20;99.90;;;;;;5009679;28;20200;-73
2022/12/01 06:36:38;;;;;;;6.05;5.65;;;2.20;99.90;;;;;;5027269;28;20219;-72
2022/12/01 06:39:08;;;;;;;6.93;6.40;;;2.20;99.90;;;;;;5022759;28;20200;-72
2022/12/01 06:41:36;;;;;;;6.43;5.93;;;2.10;99.90;;;;;;5028691;28;20310;-70
2022/12/01 06:44:03;;;;;;;5.50;5.10;;;2.10;99.90;;;;;;5027027;28;20192;-72
2022/12/01 06:46:31;;;;;;;6.35;5.85;;;2.10;99.90;;;;;;5030486;28;20230;-72
2022/12/01 06:48:58;;;;;;;5.90;5.50;;;2.20;99.90;;;;;;5030308;28;20218;-71
2022/12/01 06:51:27;;;;;;;6.65;6.15;;;2.20;99.90;;;;;;5026203;28;20219;-73
2022/12/01 06:53:54;;;;;;;6.82;6.32;;;2.20;99.90;;;;;;5045153;28;20217;-72
2022/12/01 06:56:23;;;;;;;6.72;6.22;;;2.20;99.90;;;;;;5026167;28;20251;-73
2022/12/01 06:58:50;;;;;;;7.15;6.55;;;2.20;99.90;;;;;;5023874;28;20200;-73
2022/12/01 07:01:18;;;;;;;5.95;5.55;;;2.10;99.90;;;;;;5028505;28;20869;-73
2022/12/01 07:03:49;;;;;;;6.10;5.60;;;2.20;99.90;;;;;;5026946;28;20234;-73
2022/12/01 07:06:16;;;;;;;6.22;5.72;;;2.20;99.90;;;;;;5027136;28;20242;-72
2022/12/01 07:08:45;;;;;;;6.28;5.80;;;2.20;99.90;;;;;;5027091;28;20198;-73
2022/12/01 07:11:15;;;;;;;5.68;5.28;;;2.20;99.90;;;;;;5029041;28;20219;-72
2022/12/01 07:13:44;;;;;;;6.97;6.20;;;2.20;99.90;;;;;;5025837;28;20211;-73
2022/12/01 07:16:12;;;;;;;6.07;5.63;;;2.20;99.90;;;;;;5030295;28;20223;-72
2022/12/01 07:18:39;;;;;;;6.85;6.35;;;2.20;99.90;;;;;;5030586;28;20207;-73
2022/12/01 07:21:09;;;;;;;6.20;5.80;;;2.20;99.90;;;;;;5022867;28;20717;-72
2022/12/01 07:23:36;;;;;;;5.88;5.47;;;2.20;99.90;;;;;;5023406;28;20223;-73
2022/12/01 07:26:07;;;;;;;6.65;6.25;;;2.30;99.90;;;;;;5030656;28;20227;-72
2022/12/01 07:28:35;;;;;;;6.22;5.72;;;2.30;99.90;;;;;;5029567;28;20633;-73
2022/12/01 07:31:04;;;;;;;6.45;5.95;;;2.40;99.90;;;;;;5027842;28;20230;-73
2022/12/01 07:33:31;;;;;;;6.43;5.95;;;2.40;99.90;;;;;;5027431;28;20650;-73
2022/12/01 07:35:59;;;;;;;7.28;6.68;;;2.50;99.90;;;;;;5028432;28;20925;-73
2022/12/01 07:38:28;;;;;;;6.88;6.38;;;2.50;99.90;;;;;;5025230;28;20203;-73
2022/12/01 07:40:56;;;;;;;7.30;6.68;;;2.50;99.90;;;;;;5026580;28;20334;-72
2022/12/01 07:43:25;;;;;;;6.75;6.25;;;2.60;99.90;;;;;;5028328;28;20226;-73
2022/12/01 07:45:52;;;;;;;7.20;6.63;;;2.60;99.90;;;;;;5028847;28;20203;-73
2022/12/01 07:48:20;;;;;;;5.90;5.50;;;2.70;99.90;;;;;;5026900;28;20339;-72
2022/12/01 07:50:47;;;;;;;5.93;5.43;;;2.70;99.90;;;;;;5024855;28;20224;-73
2022/12/01 07:53:15;;;;;;;6.88;6.38;;;2.70;99.90;;;;;;5051272;28;20199;-72
2022/12/01 07:55:49;;;;;;;6.85;6.35;;;2.70;99.90;;;;;;5025010;28;20253;-73
2022/12/01 07:58:16;;;;;;;7.25;6.72;;;2.70;99.90;;;;;;5027918;28;20262;-73
2022/12/01 08:00:45;;;;;;;7.88;7.22;;;2.70;99.90;;;;;;5026655;28;20211;-73
2022/12/01 08:03:13;;;;;;;7.60;7.00;;;2.70;99.90;;;;;;5026009;28;20967;-72
2022/12/01 08:05:40;;;;;;;7.25;6.65;;;2.70;99.90;;;;;;5042133;28;20218;-73
2022/12/01 08:08:07;;;;;;;7.20;6.60;;;2.80;99.90;;;;;;5026013;28;20207;-71
2022/12/01 08:10:35;;;;;;;7.32;6.82;;;2.80;99.90;;;;;;5023010;28;20230;-73
2022/12/01 08:13:03;;;;;;;6.28;5.78;;;2.90;99.90;;;;;;5029611;28;20211;-73
2022/12/01 08:15:30;;;;;;;6.65;6.15;;;2.90;99.90;;;;;;5027841;28;20727;-72
2022/12/01 08:18:02;;;;;;;6.70;6.20;;;2.90;99.90;;;;;;5026412;28;20306;-73
2022/12/01 08:20:30;;;;;;;7.55;6.95;;;2.90;99.90;;;;;;5024280;28;20224;-73
2022/12/01 08:23:01;;;;;;;8.50;7.70;;;2.80;99.90;;;;;;5023097;28;20219;-73
2022/12/01 08:25:28;;;;;;;7.35;6.85;;;2.80;99.90;;;;;;5024418;28;20199;-73
2022/12/01 08:27:56;;;;;;;7.13;6.57;;;2.80;99.90;;;;;;5023977;28;20236;-73
2022/12/01 08:30:24;;;;;;;7.00;6.50;;;2.80;99.90;;;;;;5022142;28;20200;-73
2022/12/01 08:32:54;;;;;;;7.70;7.05;;;2.80;99.90;;;;;;5027074;28;20211;-73
2022/12/01 08:35:23;;;;;;;7.07;6.47;;;2.90;99.90;;;;;;5025587;28;20227;-73
2022/12/01 08:37:52;;;;;;;7.68;6.97;;;2.90;99.90;;;;;;5022611;28;20321;-74
2022/12/01 08:40:20;;;;;;;7.78;7.18;;;3.00;99.90;;;;;;5027546;28;20806;-74
2022/12/01 08:42:48;;;;;;;7.70;7.00;;;3.00;99.90;;;;;;5025439;28;20220;-76
2022/12/01 08:45:16;;;;;;;7.18;6.55;;;3.00;99.90;;;;;;5018302;28;20207;-73
2022/12/01 08:47:43;;;;;;;7.45;6.85;;;3.00;99.90;;;;;;5026121;28;20231;-74
2022/12/01 08:50:11;;;;;;;8.73;8.02;;;3.10;99.90;;;;;;5026646;28;20208;-75
2022/12/01 08:52:40;;;;;;;8.70;7.93;;;3.20;99.90;;;;;;5025745;28;20207;-74
2022/12/01 08:55:09;;;;;;;8.98;8.27;;;3.30;99.90;;;;;;5028794;28;20200;-75
2022/12/01 08:57:36;;;;;;;9.18;8.48;;;3.90;99.90;;;;;;5020420;28;20224;-75
2022/12/01 09:00:05;;;;;;;9.55;8.75;;;4.80;99.90;;;;;;5029798;28;20210;-75
2022/12/01 09:02:32;;;;;;;8.93;8.13;;;5.80;99.90;;;;;;5029999;28;20219;-74
2022/12/01 09:04:59;;;;;;;8.98;8.18;;;7.30;99.90;;;;;;5025524;28;20211;-75
2022/12/01 09:07:30;;;;;;;6.85;6.35;;;9.10;99.90;;;;;;5025988;28;20219;-76
2022/12/01 09:09:59;;;;;;;6.43;5.93;;;11.00;99.90;;;;;;5027919;28;20202;-74
2022/12/01 09:12:29;;;;;;;6.78;6.22;;;12.80;99.90;;;;;;5023639;28;20231;-74
2022/12/01 09:14:56;;;;;;;7.00;6.50;;;14.40;99.90;;;;;;5037318;28;20251;-74
2022/12/01 09:17:25;;;;;;;5.65;5.25;;;15.70;99.90;;;;;;5039536;28;20234;-74
2022/12/01 09:19:52;;;;;;;5.85;5.35;;;16.70;99.90;;;;;;5031065;28;20214;-74
2022/12/01 09:22:20;;;;;;;5.40;5.00;;;17.60;99.90;;;;;;5029632;28;20223;-74
2022/12/01 09:24:47;;;;;;;5.38;4.88;;;18.60;99.90;;;;;;5026253;28;20235;-74
2022/12/01 09:27:16;;;;;;;5.32;4.88;;;19.00;99.90;;;;;;5030893;28;20227;-74
2022/12/01 09:29:44;;;;;;;5.30;4.90;;;19.40;99.90;;;;;;5032605;28;20207;-74
2022/12/01 09:32:11;;;;;;;5.97;5.47;;;19.60;99.90;;;;;;5032291;28;20231;-74
2022/12/01 09:34:39;;;;;;;6.22;5.63;;;18.20;99.90;;;;;;5031932;28;20192;-74
2022/12/01 09:37:07;;;;;;;5.55;5.15;;;18.00;99.90;;;;;;5026966;28;20216;-74
2022/12/01 09:39:34;;;;;;;6.18;5.68;;;18.30;99.90;;;;;;5027603;28;20282;-73
2022/12/01 09:42:05;;;;;;;7.25;6.60;;;18.20;99.90;;;;;;5031965;28;20230;-74
2022/12/01 09:44:39;;;;;;;6.20;5.60;;;17.70;99.90;;;;;;5027827;28;20219;-73
2022/12/01 09:47:13;;;;;;;5.70;5.30;;;16.70;99.90;;;;;;5030248;28;20226;-74
2022/12/01 09:49:53;;;;;;;5.15;4.70;;;15.60;99.90;;;;;;5030126;28;20202;-74
2022/12/01 09:52:22;;;;;;;5.35;4.95;;;14.60;99.90;;;;;;5030094;28;20308;-74
2022/12/01 09:54:50;;;;;;;6.07;5.47;;;13.70;99.90;;;;;;5032974;28;20207;-74
2022/12/01 09:57:27;;;;;;;6.22;5.72;;;13.10;99.90;;;;;;5031067;28;20215;-74
2022/12/01 09:59:57;;;;;;;5.63;5.13;;;12.80;99.90;;;;;;5029160;28;20210;-75
2022/12/01 10:02:33;;;;;;;6.40;5.72;;;12.60;99.90;;;;;;5027957;28;20497;-75
2022/12/01 10:05:04;;;;;;;7.28;6.13;;;12.40;99.90;;;;;;5029039;28;20700;-74
2022/12/01 10:07:36;;;;;;;6.55;5.95;;;12.40;99.90;;;;;;5026457;28;20224;-74
2022/12/01 10:10:08;;;;;;;5.70;5.20;;;12.40;99.90;;;;;;5030832;28;20661;-75
2022/12/01 10:12:36;;;;;;;5.15;4.75;;;12.60;99.90;;;;;;5029531;28;20235;-74
2022/12/01 10:15:23;;;;;;;5.30;4.90;;;12.70;99.90;;;;;;5029180;28;20202;-74
2022/12/01 10:18:01;;;;;;;5.45;5.05;;;12.60;99.90;;;;;;5025551;28;20227;-75
2022/12/01 10:20:34;;;;;;;6.45;5.95;;;12.60;99.90;;;;;;5056200;28;20219;-74
2022/12/01 10:23:23;;;;;;;7.65;6.97;;;12.50;99.90;;;;;;5031149;28;20230;-74
2022/12/01 10:25:58;;;;;;;7.55;6.47;;;12.20;99.90;;;;;;5024445;28;20195;-74
2022/12/01 10:28:44;;;;;;;6.20;5.70;;;12.00;99.90;;;;;;5034682;28;20196;-74
2022/12/01 10:31:19;;;;;;;6.53;5.93;;;11.90;99.90;;;;;;5025049;28;20321;-75
2022/12/01 10:34:00;;;;;;;7.03;6.32;;;12.00;99.90;;;;;;5029066;28;20258;-75
2022/12/01 10:36:28;;;;;;;6.63;6.13;;;11.90;99.90;;;;;;5028397;28;20238;-74
2022/12/01 10:38:56;;;;;;;6.03;5.53;;;12.00;99.90;;;;;;5030170;28;20258;-75
2022/12/01 10:41:26;;;;;;;6.35;5.75;;;12.40;99.90;;;;;;5023941;28;20231;-75
2022/12/01 10:43:59;;;;;;;6.22;5.72;;;12.70;99.90;;;;;;5029584;28;20701;-74
2022/12/01 10:46:40;;;;;;;5.68;5.28;;;12.90;99.90;;;;;;5031269;28;20298;-74
2022/12/01 10:49:10;;;;;;;6.50;5.90;;;12.90;99.90;;;;;;5026887;28;20199;-74
2022/12/01 10:51:50;;;;;;;6.43;5.78;;;12.80;99.90;;;;;;5026536;28;20637;-75
2022/12/01 10:54:18;;;;;;;6.45;5.15;;;12.30;99.90;;;;;;5031424;28;20191;-74
2022/12/01 10:56:48;;;;;;;5.85;5.40;;;12.00;99.90;;;;;;5029562;28;20224;-75
2022/12/01 10:59:31;;;;;;;5.80;5.25;;;11.90;99.90;;;;;;5026961;28;20192;-75
2022/12/01 11:02:19;;;;;;;5.93;5.43;;;11.70;99.90;;;;;;5028462;28;20227;-75
2022/12/01 11:04:54;;;;;;;5.80;5.35;;;11.30;99.90;;;;;;5028972;28;20230;-75
2022/12/01 11:07:26;;;;;;;5.30;4.90;;;11.20;99.90;;;;;;5027164;28;20226;-74
2022/12/01 11:10:06;;;;;;;6.53;5.40;;;11.40;99.90;;;;;;5028316;28;20200;-75
2022/12/01 11:12:34;;;;;;;6.40;5.80;;;11.30;99.90;;;;;;5032716;28;20230;-75
2022/12/01 11:15:02;;;;;;;8.25;5.88;;;11.40;99.90;;;;;;5030031;28;20278;-75
2022/12/01 11:17:36;;;;;;;6.05;5.55;;;11.50;99.90;;;;;;5026271;28;20220;-75
2022/12/01 11:20:27;;;;;;;6.25;5.72;;;11.40;99.90;;;;;;5027250;28;20762;-75
2022/12/01 11:23:27;;;;;;;5.85;5.35;;;11.10;99.90;;;;;;5026692;28;20271;-75
2022/12/01 11:26:09;;;;;;;5.70;5.20;;;10.80;99.90;;;;;;5027886;28;20203;-75
2022/12/01 11:28:41;;;;;;;7.05;6.45;;;10.70;99.90;;;;;;5029624;28;20199;-74
2022/12/01 11:31:11;;;;;;;5.97;5.47;;;10.60;99.90;;;;;;5026099;28;20215;-74
2022/12/01 11:33:50;;;;;;;6.20;5.63;;;10.80;99.90;;;;;;5028321;28;20630;-75
2022/12/01 11:36:25;;;;;;;6.82;6.20;;;11.20;99.90;;;;;;5026714;28;20222;-75
2022/12/01 11:38:58;;;;;;;5.80;5.30;;;11.60;99.90;;;;;;5037520;28;20214;-74
2022/12/01 11:41:31;;;;;;;6.93;6.10;;;11.40;99.90;;;;;;5028559;28;20257;-74
2022/12/01 11:44:02;;;;;;;6.68;6.07;;;11.30;99.90;;;;;;5028859;28;20223;-76
2022/12/01 11:46:33;;;;;;;6.47;5.93;;;11.40;99.90;;;;;;5021123;28;21790;-75
2022/12/01 11:49:03;;;;;;;6.70;6.20;;;11.40;99.90;;;;;;5029044;28;20684;-74
2022/12/01 11:51:36;;;;;;;6.65;6.10;;;11.30;99.90;;;;;;5025486;28;20228;-74
2022/12/01 11:54:14;;;;;;;6.32;5.72;;;11.40;99.90;;;;;;5027068;28;20242;-74
2022/12/01 11:56:43;;;;;;;5.18;4.78;;;11.40;99.90;;;;;;5028536;28;20215;-74
2022/12/01 11:59:16;;;;;;;5.45;4.95;;;11.60;99.90;;;;;;5026086;28;20199;-75
2022/12/01 12:02:08;;;;;;;6.63;6.03;;;11.70;99.90;;;;;;5022968;28;20251;-75
2022/12/01 12:04:54;;;;;;;6.65;6.05;;;11.60;99.90;;;;;;5021253;28;20219;-75
2022/12/01 12:07:32;;;;;;;5.97;5.38;;;11.40;99.90;;;;;;5024429;28;20219;-76
2022/12/01 12:10:15;;;;;;;5.97;5.47;;;11.10;99.90;;;;;;5029541;28;20211;-75
2022/12/01 12:12:58;;;;;;;6.28;4.97;;;10.90;99.90;;;;;;5025832;28;20311;-75
2022/12/01 12:15:36;;;;;;;6.25;5.65;;;11.10;99.90;;;;;;5038815;28;20247;-75
2022/12/01 12:18:35;;;;;;;5.95;5.45;;;11.30;99.90;;;;;;5028884;28;20220;-75
2022/12/01 12:21:20;;;;;;;6.32;5.80;;;11.40;99.90;;;;;;5023703;28;20224;-76
2022/12/01 12:24:14;;;;;;;5.70;5.20;;;11.50;99.90;;;;;;5026086;28;20693;-76
2022/12/01 12:26:47;;;;;;;5.28;4.80;;;11.70;99.90;;;;;;5023868;28;20650;-75
2022/12/01 12:29:32;;;;;;;6.00;5.50;;;11.60;99.90;;;;;;5026530;28;20203;-75
2022/12/01 12:32:15;;;;;;;5.72;5.22;;;11.80;99.90;;;;;;5021077;28;20227;-75
2022/12/01 12:34:53;;;;;;;5.78;5.25;;;11.90;99.90;;;;;;5024295;28;20238;-75
2022/12/01 12:37:31;;;;;;;5.88;5.38;;;11.60;99.90;;;;;;5025596;28;20223;-75
2022/12/01 12:40:22;;;;;;;5.47;5.07;;;11.40;99.90;;;;;;5026144;28;20196;-75
2022/12/01 12:43:02;;;;;;;5.30;4.90;;;11.40;99.90;;;;;;5016482;28;20293;-75
2022/12/01 12:45:52;;;;;;;5.53;5.03;;;11.70;99.90;;;;;;5027027;28;20750;-76
2022/12/01 12:48:27;;;;;;;5.63;5.13;;;11.90;99.90;;;;;;5021820;28;20230;-75
2022/12/01 12:51:07;;;;;;;5.72;5.22;;;11.90;99.90;;;;;;5037160;28;20215;-75
2022/12/01 12:53:48;;;;;;;5.53;4.97;;;11.90;99.90;;;;;;5028103;28;20578;-75
2022/12/01 12:56:19;;;;;;;5.00;4.60;;;11.80;99.90;;;;;;5026812;28;20230;-75
2022/12/01 12:58:57;;;;;;;5.05;4.63;;;11.80;99.90;;;;;;5028904;28;20245;-75
2022/12/01 13:01:28;;;;;;;4.95;4.45;;;11.80;99.90;;;;;;5026216;28;20231;-75
2022/12/01 13:04:00;;;;;;;5.75;5.18;;;11.70;99.90;;;;;;5030217;28;20223;-75
2022/12/01 13:06:34;;;;;;;5.20;4.80;;;11.40;99.90;;;;;;5028135;28;20212;-75
2022/12/01 13:09:08;;;;;;;5.57;4.97;;;11.30;99.90;;;;;;5026956;28;20572;-75
2022/12/01 13:11:42;;;;;;;5.22;4.85;;;11.30;99.90;;;;;;5020929;28;20227;-75
2022/12/01 13:14:18;;;;;;;4.60;4.30;;;11.00;99.90;;;;;;5023704;28;20278;-75
2022/12/01 13:16:48;;;;;;;4.63;4.25;;;10.70;99.90;;;;;;5023566;28;20228;-76
2022/12/01 13:19:19;;;;;;;4.80;4.40;;;10.50;99.90;;;;;;5021086;28;20279;-76